sensor_id;sensor_type;location;lat;lon;timestamp;P1;durP1;ratioP1;P2;durP2;ratioP2
11488;SDS011;5801;50.804;12.638;2024-02-14T00:01:26;3.78;;;2.38;;
11488;SDS011;5801;50.804;12.638;2024-02-14T00:03:52;4.40;;;2.50;;
11488;SDS011;5801;50.804;12.638;2024-02-14T00:06:18;2.20;;;1.95;;
11488;SDS011;5801;50.804;12.638;2024-02-14T00:08:44;3.70;;;1.90;;
11488;SDS011;5801;50.804;12.638;2024-02-14T00:11:10;4.13;;;2.28;;
11488;SDS011;5801;50.804;12.638;2024-02-14T00:13:36;4.13;;;1.83;;
11488;SDS011;5801;50.804;12.638;2024-02-14T00:16:02;3.75;;;2.00;;
11488;SDS011;5801;50.804;12.638;2024-02-14T00:18:28;1.88;;;1.65;;
11488;SDS011;5801;50.804;12.638;2024-02-14T00:20:54;6.68;;;2.50;;
11488;SDS011;5801;50.804;12.638;2024-02-14T00:23:20;2.53;;;2.10;;
11488;SDS011;5801;50.804;12.638;2024-02-14T00:25:46;2.47;;;2.08;;
11488;SDS011;5801;50.804;12.638;2024-02-14T00:28:12;2.00;;;1.80;;
11488;SDS011;5801;50.804;12.638;2024-02-14T00:30:38;3.03;;;1.70;;
11488;SDS011;5801;50.804;12.638;2024-02-14T00:33:04;4.35;;;1.60;;
11488;SDS011;5801;50.804;12.638;2024-02-14T00:35:30;3.20;;;2.30;;
11488;SDS011;5801;50.804;12.638;2024-02-14T00:37:56;3.80;;;2.30;;
11488;SDS011;5801;50.804;12.638;2024-02-14T00:40:22;4.20;;;2.20;;
11488;SDS011;5801;50.804;12.638;2024-02-14T00:42:48;2.72;;;1.70;;
11488;SDS011;5801;50.804;12.638;2024-02-14T00:45:14;2.65;;;1.98;;
11488;SDS011;5801;50.804;12.638;2024-02-14T00:47:41;1.77;;;1.50;;
11488;SDS011;5801;50.804;12.638;2024-02-14T00:50:07;8.23;;;1.63;;
11488;SDS011;5801;50.804;12.638;2024-02-14T00:52:33;3.95;;;1.42;;
11488;SDS011;5801;50.804;12.638;2024-02-14T00:54:59;3.20;;;1.85;;
11488;SDS011;5801;50.804;12.638;2024-02-14T00:57:28;1.90;;;1.73;;
11488;SDS011;5801;50.804;12.638;2024-02-14T00:59:54;5.97;;;1.95;;
11488;SDS011;5801;50.804;12.638;2024-02-14T01:02:22;2.35;;;1.55;;
11488;SDS011;5801;50.804;12.638;2024-02-14T01:04:48;3.10;;;1.70;;
11488;SDS011;5801;50.804;12.638;2024-02-14T01:07:14;2.88;;;1.70;;
11488;SDS011;5801;50.804;12.638;2024-02-14T01:09:41;3.60;;;2.00;;
11488;SDS011;5801;50.804;12.638;2024-02-14T01:12:07;1.67;;;1.58;;
11488;SDS011;5801;50.804;12.638;2024-02-14T01:14:32;3.55;;;1.85;;
11488;SDS011;5801;50.804;12.638;2024-02-14T01:16:58;4.60;;;1.73;;
11488;SDS011;5801;50.804;12.638;2024-02-14T01:19:24;2.83;;;1.60;;
11488;SDS011;5801;50.804;12.638;2024-02-14T01:21:53;6.05;;;2.00;;
11488;SDS011;5801;50.804;12.638;2024-02-14T01:24:20;2.50;;;1.83;;
11488;SDS011;5801;50.804;12.638;2024-02-14T01:26:47;2.33;;;1.75;;
11488;SDS011;5801;50.804;12.638;2024-02-14T01:29:15;2.83;;;1.80;;
11488;SDS011;5801;50.804;12.638;2024-02-14T01:31:41;4.97;;;1.40;;
11488;SDS011;5801;50.804;12.638;2024-02-14T01:34:07;3.85;;;1.70;;
11488;SDS011;5801;50.804;12.638;2024-02-14T01:36:33;2.17;;;1.60;;
11488;SDS011;5801;50.804;12.638;2024-02-14T01:38:59;2.85;;;1.67;;
11488;SDS011;5801;50.804;12.638;2024-02-14T01:41:25;1.60;;;1.50;;
11488;SDS011;5801;50.804;12.638;2024-02-14T01:43:51;4.57;;;1.90;;
11488;SDS011;5801;50.804;12.638;2024-02-14T01:46:17;2.70;;;1.75;;
11488;SDS011;5801;50.804;12.638;2024-02-14T01:48:43;4.13;;;1.58;;
11488;SDS011;5801;50.804;12.638;2024-02-14T01:51:11;2.90;;;1.83;;
11488;SDS011;5801;50.804;12.638;2024-02-14T01:53:37;5.53;;;1.75;;
11488;SDS011;5801;50.804;12.638;2024-02-14T01:56:03;1.40;;;1.30;;
11488;SDS011;5801;50.804;12.638;2024-02-14T01:58:31;3.33;;;1.70;;
11488;SDS011;5801;50.804;12.638;2024-02-14T02:00:58;1.20;;;1.10;;
11488;SDS011;5801;50.804;12.638;2024-02-14T02:03:24;2.63;;;1.73;;
11488;SDS011;5801;50.804;12.638;2024-02-14T02:05:51;6.20;;;1.65;;
11488;SDS011;5801;50.804;12.638;2024-02-14T02:08:18;3.08;;;1.30;;
11488;SDS011;5801;50.804;12.638;2024-02-14T02:10:45;4.65;;;1.65;;
11488;SDS011;5801;50.804;12.638;2024-02-14T02:13:11;3.97;;;1.50;;
11488;SDS011;5801;50.804;12.638;2024-02-14T02:15:37;7.13;;;1.65;;
11488;SDS011;5801;50.804;12.638;2024-02-14T02:18:03;6.35;;;1.42;;
11488;SDS011;5801;50.804;12.638;2024-02-14T02:20:31;3.17;;;1.35;;
11488;SDS011;5801;50.804;12.638;2024-02-14T02:22:57;2.00;;;1.25;;
11488;SDS011;5801;50.804;12.638;2024-02-14T02:25:24;1.63;;;1.40;;
11488;SDS011;5801;50.804;12.638;2024-02-14T02:27:54;1.77;;;1.20;;
11488;SDS011;5801;50.804;12.638;2024-02-14T02:30:21;1.98;;;1.40;;
11488;SDS011;5801;50.804;12.638;2024-02-14T02:32:47;1.63;;;1.52;;
11488;SDS011;5801;50.804;12.638;2024-02-14T02:35:15;1.25;;;1.15;;
11488;SDS011;5801;50.804;12.638;2024-02-14T02:37:41;1.58;;;1.20;;
11488;SDS011;5801;50.804;12.638;2024-02-14T02:40:10;1.58;;;1.25;;
11488;SDS011;5801;50.804;12.638;2024-02-14T02:42:37;1.40;;;1.30;;
11488;SDS011;5801;50.804;12.638;2024-02-14T02:45:03;1.70;;;1.10;;
11488;SDS011;5801;50.804;12.638;2024-02-14T02:47:30;1.00;;;0.98;;
11488;SDS011;5801;50.804;12.638;2024-02-14T02:49:59;3.60;;;1.30;;
11488;SDS011;5801;50.804;12.638;2024-02-14T02:52:27;2.60;;;1.20;;
11488;SDS011;5801;50.804;12.638;2024-02-14T02:54:53;4.00;;;1.13;;
11488;SDS011;5801;50.804;12.638;2024-02-14T02:57:19;6.63;;;1.02;;
11488;SDS011;5801;50.804;12.638;2024-02-14T02:59:45;1.75;;;1.30;;
11488;SDS011;5801;50.804;12.638;2024-02-14T03:02:13;1.90;;;1.30;;
11488;SDS011;5801;50.804;12.638;2024-02-14T03:04:41;5.10;;;1.08;;
11488;SDS011;5801;50.804;12.638;2024-02-14T03:07:08;2.45;;;1.30;;
11488;SDS011;5801;50.804;12.638;2024-02-14T03:09:34;1.60;;;0.85;;
11488;SDS011;5801;50.804;12.638;2024-02-14T03:12:01;3.35;;;1.27;;
11488;SDS011;5801;50.804;12.638;2024-02-14T03:14:31;2.35;;;1.40;;
11488;SDS011;5801;50.804;12.638;2024-02-14T03:17:00;7.03;;;1.13;;
11488;SDS011;5801;50.804;12.638;2024-02-14T03:19:27;2.35;;;1.38;;
11488;SDS011;5801;50.804;12.638;2024-02-14T03:21:54;1.15;;;1.08;;
11488;SDS011;5801;50.804;12.638;2024-02-14T03:24:20;1.63;;;1.23;;
11488;SDS011;5801;50.804;12.638;2024-02-14T03:26:46;0.90;;;0.90;;
11488;SDS011;5801;50.804;12.638;2024-02-14T03:29:16;1.42;;;1.13;;
11488;SDS011;5801;50.804;12.638;2024-02-14T03:31:42;3.00;;;1.33;;
11488;SDS011;5801;50.804;12.638;2024-02-14T03:34:09;3.05;;;1.17;;
11488;SDS011;5801;50.804;12.638;2024-02-14T03:36:36;5.28;;;0.80;;
11488;SDS011;5801;50.804;12.638;2024-02-14T03:39:03;5.97;;;1.63;;
11488;SDS011;5801;50.804;12.638;2024-02-14T03:41:30;3.38;;;0.90;;
11488;SDS011;5801;50.804;12.638;2024-02-14T03:43:56;1.20;;;0.90;;
11488;SDS011;5801;50.804;12.638;2024-02-14T03:46:27;3.90;;;1.00;;
11488;SDS011;5801;50.804;12.638;2024-02-14T03:48:54;0.90;;;0.85;;
11488;SDS011;5801;50.804;12.638;2024-02-14T03:51:19;0.82;;;0.82;;
11488;SDS011;5801;50.804;12.638;2024-02-14T03:53:47;1.52;;;1.20;;
11488;SDS011;5801;50.804;12.638;2024-02-14T03:56:13;1.08;;;1.00;;
11488;SDS011;5801;50.804;12.638;2024-02-14T03:58:41;1.55;;;0.82;;
11488;SDS011;5801;50.804;12.638;2024-02-14T04:01:07;1.35;;;1.10;;
11488;SDS011;5801;50.804;12.638;2024-02-14T04:03:33;4.72;;;2.05;;
11488;SDS011;5801;50.804;12.638;2024-02-14T04:05:59;12.52;;;4.53;;
11488;SDS011;5801;50.804;12.638;2024-02-14T04:08:25;21.30;;;4.82;;
11488;SDS011;5801;50.804;12.638;2024-02-14T04:10:51;41.40;;;14.05;;
11488;SDS011;5801;50.804;12.638;2024-02-14T04:13:19;28.15;;;9.65;;
11488;SDS011;5801;50.804;12.638;2024-02-14T04:15:46;9.23;;;4.22;;
11488;SDS011;5801;50.804;12.638;2024-02-14T04:18:12;8.65;;;3.40;;
11488;SDS011;5801;50.804;12.638;2024-02-14T04:20:40;4.30;;;2.78;;
11488;SDS011;5801;50.804;12.638;2024-02-14T04:23:06;4.95;;;2.97;;
11488;SDS011;5801;50.804;12.638;2024-02-14T04:25:32;5.38;;;1.85;;
11488;SDS011;5801;50.804;12.638;2024-02-14T04:27:59;1.58;;;1.30;;
11488;SDS011;5801;50.804;12.638;2024-02-14T04:30:25;7.50;;;2.00;;
11488;SDS011;5801;50.804;12.638;2024-02-14T04:32:51;3.10;;;1.75;;
11488;SDS011;5801;50.804;12.638;2024-02-14T04:35:19;2.92;;;1.42;;
11488;SDS011;5801;50.804;12.638;2024-02-14T04:37:45;1.02;;;1.02;;
11488;SDS011;5801;50.804;12.638;2024-02-14T04:40:13;5.85;;;1.38;;
11488;SDS011;5801;50.804;12.638;2024-02-14T04:42:39;1.20;;;1.08;;
11488;SDS011;5801;50.804;12.638;2024-02-14T04:45:06;0.80;;;0.80;;
11488;SDS011;5801;50.804;12.638;2024-02-14T04:47:32;0.80;;;0.80;;
11488;SDS011;5801;50.804;12.638;2024-02-14T04:49:58;0.90;;;0.88;;
11488;SDS011;5801;50.804;12.638;2024-02-14T04:52:24;0.93;;;0.75;;
11488;SDS011;5801;50.804;12.638;2024-02-14T04:54:51;2.13;;;0.80;;
11488;SDS011;5801;50.804;12.638;2024-02-14T04:57:16;0.75;;;0.75;;
11488;SDS011;5801;50.804;12.638;2024-02-14T04:59:43;2.65;;;1.02;;
11488;SDS011;5801;50.804;12.638;2024-02-14T05:02:09;1.02;;;0.70;;
11488;SDS011;5801;50.804;12.638;2024-02-14T05:04:35;2.75;;;0.85;;
11488;SDS011;5801;50.804;12.638;2024-02-14T05:07:03;1.13;;;1.02;;
11488;SDS011;5801;50.804;12.638;2024-02-14T05:09:29;3.92;;;0.85;;
11488;SDS011;5801;50.804;12.638;2024-02-14T05:11:55;7.72;;;1.00;;
11488;SDS011;5801;50.804;12.638;2024-02-14T05:14:21;1.70;;;0.80;;
11488;SDS011;5801;50.804;12.638;2024-02-14T05:16:47;0.82;;;0.70;;
11488;SDS011;5801;50.804;12.638;2024-02-14T05:19:13;0.50;;;0.50;;
11488;SDS011;5801;50.804;12.638;2024-02-14T05:21:39;3.35;;;1.08;;
11488;SDS011;5801;50.804;12.638;2024-02-14T05:24:05;0.73;;;0.73;;
11488;SDS011;5801;50.804;12.638;2024-02-14T05:26:31;1.65;;;0.85;;
11488;SDS011;5801;50.804;12.638;2024-02-14T05:28:58;1.15;;;0.85;;
11488;SDS011;5801;50.804;12.638;2024-02-14T05:31:24;1.23;;;0.80;;
11488;SDS011;5801;50.804;12.638;2024-02-14T05:33:49;0.77;;;0.75;;
11488;SDS011;5801;50.804;12.638;2024-02-14T05:36:16;0.70;;;0.70;;
11488;SDS011;5801;50.804;12.638;2024-02-14T05:38:42;0.90;;;0.90;;
11488;SDS011;5801;50.804;12.638;2024-02-14T05:41:08;0.80;;;0.80;;
11488;SDS011;5801;50.804;12.638;2024-02-14T05:43:35;0.90;;;0.55;;
11488;SDS011;5801;50.804;12.638;2024-02-14T05:46:01;2.40;;;1.00;;
11488;SDS011;5801;50.804;12.638;2024-02-14T05:48:27;0.95;;;0.90;;
11488;SDS011;5801;50.804;12.638;2024-02-14T05:50:53;0.80;;;0.80;;
11488;SDS011;5801;50.804;12.638;2024-02-14T05:53:19;1.02;;;0.90;;
11488;SDS011;5801;50.804;12.638;2024-02-14T05:55:45;3.55;;;1.10;;
11488;SDS011;5801;50.804;12.638;2024-02-14T05:58:11;2.30;;;0.85;;
11488;SDS011;5801;50.804;12.638;2024-02-14T06:00:38;2.95;;;0.93;;
11488;SDS011;5801;50.804;12.638;2024-02-14T06:03:04;1.60;;;1.10;;
11488;SDS011;5801;50.804;12.638;2024-02-14T06:05:31;3.05;;;1.00;;
11488;SDS011;5801;50.804;12.638;2024-02-14T06:07:57;8.43;;;1.38;;
11488;SDS011;5801;50.804;12.638;2024-02-14T06:10:23;4.00;;;1.20;;
11488;SDS011;5801;50.804;12.638;2024-02-14T06:12:50;1.95;;;0.88;;
11488;SDS011;5801;50.804;12.638;2024-02-14T06:15:16;10.48;;;1.38;;
11488;SDS011;5801;50.804;12.638;2024-02-14T06:17:41;1.45;;;1.10;;
11488;SDS011;5801;50.804;12.638;2024-02-14T06:20:08;1.48;;;0.90;;
11488;SDS011;5801;50.804;12.638;2024-02-14T06:22:34;1.17;;;1.00;;
11488;SDS011;5801;50.804;12.638;2024-02-14T06:25:00;2.45;;;0.90;;
11488;SDS011;5801;50.804;12.638;2024-02-14T06:27:26;1.70;;;1.00;;
11488;SDS011;5801;50.804;12.638;2024-02-14T06:29:52;0.90;;;0.82;;
11488;SDS011;5801;50.804;12.638;2024-02-14T06:32:19;1.40;;;0.98;;
11488;SDS011;5801;50.804;12.638;2024-02-14T06:34:45;2.60;;;1.08;;
11488;SDS011;5801;50.804;12.638;2024-02-14T06:37:11;3.05;;;0.93;;
11488;SDS011;5801;50.804;12.638;2024-02-14T06:39:37;4.10;;;0.90;;
11488;SDS011;5801;50.804;12.638;2024-02-14T06:42:04;2.58;;;1.15;;
11488;SDS011;5801;50.804;12.638;2024-02-14T06:44:30;0.88;;;0.88;;
11488;SDS011;5801;50.804;12.638;2024-02-14T06:46:56;0.82;;;0.82;;
11488;SDS011;5801;50.804;12.638;2024-02-14T06:49:22;0.90;;;0.90;;
11488;SDS011;5801;50.804;12.638;2024-02-14T06:51:48;0.85;;;0.85;;
11488;SDS011;5801;50.804;12.638;2024-02-14T06:54:14;2.28;;;1.08;;
11488;SDS011;5801;50.804;12.638;2024-02-14T06:56:42;2.30;;;1.13;;
11488;SDS011;5801;50.804;12.638;2024-02-14T06:59:08;1.00;;;1.00;;
11488;SDS011;5801;50.804;12.638;2024-02-14T07:01:34;1.27;;;1.15;;
11488;SDS011;5801;50.804;12.638;2024-02-14T07:03:59;2.83;;;1.40;;
11488;SDS011;5801;50.804;12.638;2024-02-14T07:06:26;1.08;;;0.90;;
11488;SDS011;5801;50.804;12.638;2024-02-14T07:08:52;1.13;;;1.00;;
11488;SDS011;5801;50.804;12.638;2024-02-14T07:11:19;2.10;;;1.38;;
11488;SDS011;5801;50.804;12.638;2024-02-14T07:13:45;2.72;;;1.13;;
11488;SDS011;5801;50.804;12.638;2024-02-14T07:16:10;0.95;;;0.80;;
11488;SDS011;5801;50.804;12.638;2024-02-14T07:18:36;7.80;;;1.35;;
11488;SDS011;5801;50.804;12.638;2024-02-14T07:21:02;1.08;;;0.98;;
11488;SDS011;5801;50.804;12.638;2024-02-14T07:23:30;2.25;;;1.05;;
11488;SDS011;5801;50.804;12.638;2024-02-14T07:25:58;1.15;;;1.05;;
11488;SDS011;5801;50.804;12.638;2024-02-14T07:28:24;2.30;;;0.93;;
11488;SDS011;5801;50.804;12.638;2024-02-14T07:30:50;1.42;;;1.05;;
11488;SDS011;5801;50.804;12.638;2024-02-14T07:33:16;2.33;;;1.02;;
11488;SDS011;5801;50.804;12.638;2024-02-14T07:35:42;5.32;;;1.08;;
11488;SDS011;5801;50.804;12.638;2024-02-14T07:38:08;3.45;;;1.25;;
11488;SDS011;5801;50.804;12.638;2024-02-14T07:40:34;1.20;;;1.08;;
11488;SDS011;5801;50.804;12.638;2024-02-14T07:43:00;3.08;;;1.35;;
11488;SDS011;5801;50.804;12.638;2024-02-14T07:45:27;2.33;;;1.27;;
11488;SDS011;5801;50.804;12.638;2024-02-14T07:47:53;1.00;;;1.00;;
11488;SDS011;5801;50.804;12.638;2024-02-14T07:50:20;1.80;;;1.17;;
11488;SDS011;5801;50.804;12.638;2024-02-14T07:52:47;0.90;;;0.90;;
11488;SDS011;5801;50.804;12.638;2024-02-14T07:55:13;1.60;;;1.10;;
11488;SDS011;5801;50.804;12.638;2024-02-14T07:57:39;1.70;;;1.00;;
11488;SDS011;5801;50.804;12.638;2024-02-14T08:00:06;4.28;;;1.00;;
11488;SDS011;5801;50.804;12.638;2024-02-14T08:02:36;1.35;;;0.90;;
11488;SDS011;5801;50.804;12.638;2024-02-14T08:05:04;2.22;;;1.50;;
11488;SDS011;5801;50.804;12.638;2024-02-14T08:07:30;1.40;;;1.20;;
11488;SDS011;5801;50.804;12.638;2024-02-14T08:09:57;1.02;;;0.93;;
11488;SDS011;5801;50.804;12.638;2024-02-14T08:12:22;1.45;;;1.10;;
11488;SDS011;5801;50.804;12.638;2024-02-14T08:14:50;4.97;;;1.15;;
11488;SDS011;5801;50.804;12.638;2024-02-14T08:17:16;2.08;;;1.30;;
11488;SDS011;5801;50.804;12.638;2024-02-14T08:19:43;1.83;;;1.33;;
11488;SDS011;5801;50.804;12.638;2024-02-14T08:22:09;3.65;;;1.48;;
11488;SDS011;5801;50.804;12.638;2024-02-14T08:24:35;1.48;;;1.10;;
11488;SDS011;5801;50.804;12.638;2024-02-14T08:27:01;2.58;;;1.30;;
11488;SDS011;5801;50.804;12.638;2024-02-14T08:29:27;4.30;;;1.30;;
11488;SDS011;5801;50.804;12.638;2024-02-14T08:31:53;2.35;;;1.58;;
11488;SDS011;5801;50.804;12.638;2024-02-14T08:34:20;1.58;;;1.20;;
11488;SDS011;5801;50.804;12.638;2024-02-14T08:36:47;1.52;;;1.05;;
11488;SDS011;5801;50.804;12.638;2024-02-14T08:39:13;1.33;;;0.98;;
11488;SDS011;5801;50.804;12.638;2024-02-14T08:41:39;2.20;;;1.40;;
11488;SDS011;5801;50.804;12.638;2024-02-14T08:44:06;1.30;;;1.20;;
11488;SDS011;5801;50.804;12.638;2024-02-14T08:46:32;1.65;;;1.35;;
11488;SDS011;5801;50.804;12.638;2024-02-14T08:49:00;7.80;;;1.90;;
11488;SDS011;5801;50.804;12.638;2024-02-14T08:51:27;1.20;;;1.08;;
11488;SDS011;5801;50.804;12.638;2024-02-14T08:53:53;5.57;;;1.52;;
11488;SDS011;5801;50.804;12.638;2024-02-14T08:56:22;1.23;;;1.00;;
11488;SDS011;5801;50.804;12.638;2024-02-14T08:58:48;4.05;;;1.42;;
11488;SDS011;5801;50.804;12.638;2024-02-14T09:01:14;4.90;;;1.40;;
11488;SDS011;5801;50.804;12.638;2024-02-14T09:03:41;1.98;;;1.00;;
11488;SDS011;5801;50.804;12.638;2024-02-14T09:06:15;2.33;;;1.55;;
11488;SDS011;5801;50.804;12.638;2024-02-14T09:08:43;2.42;;;1.30;;
11488;SDS011;5801;50.804;12.638;2024-02-14T09:11:09;2.20;;;1.33;;
11488;SDS011;5801;50.804;12.638;2024-02-14T09:13:35;1.73;;;1.38;;
11488;SDS011;5801;50.804;12.638;2024-02-14T09:16:01;2.92;;;1.17;;
11488;SDS011;5801;50.804;12.638;2024-02-14T09:18:27;3.33;;;0.98;;
11488;SDS011;5801;50.804;12.638;2024-02-14T09:20:55;1.58;;;1.27;;
11488;SDS011;5801;50.804;12.638;2024-02-14T09:23:21;2.10;;;1.00;;
11488;SDS011;5801;50.804;12.638;2024-02-14T09:25:48;1.88;;;1.30;;
11488;SDS011;5801;50.804;12.638;2024-02-14T09:28:17;3.78;;;1.30;;
11488;SDS011;5801;50.804;12.638;2024-02-14T09:30:43;5.43;;;1.13;;
11488;SDS011;5801;50.804;12.638;2024-02-14T09:33:10;1.75;;;1.17;;
11488;SDS011;5801;50.804;12.638;2024-02-14T09:35:36;2.67;;;1.20;;
11488;SDS011;5801;50.804;12.638;2024-02-14T09:38:03;2.95;;;1.15;;
11488;SDS011;5801;50.804;12.638;2024-02-14T09:40:30;1.75;;;1.15;;
11488;SDS011;5801;50.804;12.638;2024-02-14T09:42:56;1.08;;;1.02;;
11488;SDS011;5801;50.804;12.638;2024-02-14T09:45:28;5.35;;;1.42;;
11488;SDS011;5801;50.804;12.638;2024-02-14T09:47:58;1.48;;;1.38;;
11488;SDS011;5801;50.804;12.638;2024-02-14T09:50:24;2.97;;;1.50;;
11488;SDS011;5801;50.804;12.638;2024-02-14T09:52:55;1.30;;;1.20;;
11488;SDS011;5801;50.804;12.638;2024-02-14T09:55:22;5.30;;;1.40;;
11488;SDS011;5801;50.804;12.638;2024-02-14T09:57:49;1.45;;;1.10;;
11488;SDS011;5801;50.804;12.638;2024-02-14T10:00:15;3.15;;;1.73;;
11488;SDS011;5801;50.804;12.638;2024-02-14T10:02:41;4.15;;;1.92;;
11488;SDS011;5801;50.804;12.638;2024-02-14T10:05:07;9.77;;;1.73;;
11488;SDS011;5801;50.804;12.638;2024-02-14T10:07:40;2.60;;;1.63;;
11488;SDS011;5801;50.804;12.638;2024-02-14T10:10:07;3.42;;;1.67;;
11488;SDS011;5801;50.804;12.638;2024-02-14T10:12:33;5.47;;;1.90;;
11488;SDS011;5801;50.804;12.638;2024-02-14T10:14:59;4.25;;;1.63;;
11488;SDS011;5801;50.804;12.638;2024-02-14T10:17:27;3.75;;;2.20;;
11488;SDS011;5801;50.804;12.638;2024-02-14T10:20:00;2.53;;;1.52;;
11488;SDS011;5801;50.804;12.638;2024-02-14T10:22:36;4.97;;;1.75;;
11488;SDS011;5801;50.804;12.638;2024-02-14T10:25:03;2.85;;;1.40;;
11488;SDS011;5801;50.804;12.638;2024-02-14T10:27:33;3.13;;;1.42;;
11488;SDS011;5801;50.804;12.638;2024-02-14T10:30:04;1.15;;;1.05;;
11488;SDS011;5801;50.804;12.638;2024-02-14T10:32:34;5.20;;;3.20;;
11488;SDS011;5801;50.804;12.638;2024-02-14T10:35:05;3.88;;;2.38;;
11488;SDS011;5801;50.804;12.638;2024-02-14T10:37:33;1.90;;;1.40;;
11488;SDS011;5801;50.804;12.638;2024-02-14T10:40:01;0.80;;;0.80;;
11488;SDS011;5801;50.804;12.638;2024-02-14T10:42:28;1.73;;;1.38;;
11488;SDS011;5801;50.804;12.638;2024-02-14T10:44:54;2.63;;;1.20;;
11488;SDS011;5801;50.804;12.638;2024-02-14T10:47:20;2.25;;;1.35;;
11488;SDS011;5801;50.804;12.638;2024-02-14T10:49:49;1.98;;;1.20;;
11488;SDS011;5801;50.804;12.638;2024-02-14T10:52:17;7.13;;;1.58;;
11488;SDS011;5801;50.804;12.638;2024-02-14T10:54:43;2.65;;;1.27;;
11488;SDS011;5801;50.804;12.638;2024-02-14T10:57:24;2.95;;;1.27;;
11488;SDS011;5801;50.804;12.638;2024-02-14T10:59:50;2.58;;;1.30;;
11488;SDS011;5801;50.804;12.638;2024-02-14T11:02:18;2.97;;;1.30;;
11488;SDS011;5801;50.804;12.638;2024-02-14T11:04:45;1.65;;;1.48;;
11488;SDS011;5801;50.804;12.638;2024-02-14T11:07:11;3.42;;;1.23;;
11488;SDS011;5801;50.804;12.638;2024-02-14T11:09:38;1.60;;;1.08;;
11488;SDS011;5801;50.804;12.638;2024-02-14T11:12:08;3.38;;;1.27;;
11488;SDS011;5801;50.804;12.638;2024-02-14T11:14:37;1.50;;;1.15;;
11488;SDS011;5801;50.804;12.638;2024-02-14T11:17:04;1.73;;;1.52;;
11488;SDS011;5801;50.804;12.638;2024-02-14T11:19:42;1.33;;;1.13;;
11488;SDS011;5801;50.804;12.638;2024-02-14T11:22:12;1.45;;;1.20;;
11488;SDS011;5801;50.804;12.638;2024-02-14T11:24:45;4.95;;;1.58;;
11488;SDS011;5801;50.804;12.638;2024-02-14T11:27:12;6.68;;;1.67;;
11488;SDS011;5801;50.804;12.638;2024-02-14T11:29:50;3.30;;;1.73;;
11488;SDS011;5801;50.804;12.638;2024-02-14T11:32:17;2.35;;;1.15;;
11488;SDS011;5801;50.804;12.638;2024-02-14T11:34:52;5.85;;;1.42;;
11488;SDS011;5801;50.804;12.638;2024-02-14T11:37:20;3.60;;;1.67;;
11488;SDS011;5801;50.804;12.638;2024-02-14T11:39:48;3.85;;;1.30;;
11488;SDS011;5801;50.804;12.638;2024-02-14T11:42:14;2.47;;;1.30;;
11488;SDS011;5801;50.804;12.638;2024-02-14T11:44:40;2.25;;;1.30;;
11488;SDS011;5801;50.804;12.638;2024-02-14T11:47:08;2.70;;;1.23;;
11488;SDS011;5801;50.804;12.638;2024-02-14T11:49:35;6.55;;;1.98;;
11488;SDS011;5801;50.804;12.638;2024-02-14T11:52:01;4.15;;;1.52;;
11488;SDS011;5801;50.804;12.638;2024-02-14T11:54:29;5.00;;;1.77;;
11488;SDS011;5801;50.804;12.638;2024-02-14T11:56:54;2.10;;;1.52;;
11488;SDS011;5801;50.804;12.638;2024-02-14T11:59:21;2.25;;;1.50;;
11488;SDS011;5801;50.804;12.638;2024-02-14T12:01:48;2.00;;;1.30;;
11488;SDS011;5801;50.804;12.638;2024-02-14T12:04:16;1.95;;;1.42;;
11488;SDS011;5801;50.804;12.638;2024-02-14T12:06:43;1.17;;;1.08;;
11488;SDS011;5801;50.804;12.638;2024-02-14T12:09:09;2.88;;;1.45;;
11488;SDS011;5801;50.804;12.638;2024-02-14T12:11:38;4.97;;;1.58;;
11488;SDS011;5801;50.804;12.638;2024-02-14T12:14:07;5.40;;;1.25;;
11488;SDS011;5801;50.804;12.638;2024-02-14T12:16:34;4.60;;;1.70;;
11488;SDS011;5801;50.804;12.638;2024-02-14T12:19:05;6.82;;;1.65;;
11488;SDS011;5801;50.804;12.638;2024-02-14T12:21:35;3.20;;;1.50;;
11488;SDS011;5801;50.804;12.638;2024-02-14T12:24:02;1.50;;;1.10;;
11488;SDS011;5801;50.804;12.638;2024-02-14T12:26:33;1.83;;;1.30;;
11488;SDS011;5801;50.804;12.638;2024-02-14T12:29:02;5.60;;;1.42;;
11488;SDS011;5801;50.804;12.638;2024-02-14T12:31:29;2.00;;;1.00;;
11488;SDS011;5801;50.804;12.638;2024-02-14T12:33:56;2.08;;;1.52;;
11488;SDS011;5801;50.804;12.638;2024-02-14T12:36:25;1.48;;;1.00;;
11488;SDS011;5801;50.804;12.638;2024-02-14T12:38:52;1.42;;;1.15;;
11488;SDS011;5801;50.804;12.638;2024-02-14T12:41:19;2.97;;;1.17;;
11488;SDS011;5801;50.804;12.638;2024-02-14T12:43:45;1.45;;;1.23;;
11488;SDS011;5801;50.804;12.638;2024-02-14T12:46:11;2.53;;;1.48;;
11488;SDS011;5801;50.804;12.638;2024-02-14T12:48:37;1.92;;;1.10;;
11488;SDS011;5801;50.804;12.638;2024-02-14T12:51:03;1.33;;;1.10;;
11488;SDS011;5801;50.804;12.638;2024-02-14T12:53:29;1.58;;;1.23;;
11488;SDS011;5801;50.804;12.638;2024-02-14T12:55:55;2.70;;;1.27;;
11488;SDS011;5801;50.804;12.638;2024-02-14T12:58:21;1.30;;;1.20;;
11488;SDS011;5801;50.804;12.638;2024-02-14T13:00:47;1.88;;;1.17;;
11488;SDS011;5801;50.804;12.638;2024-02-14T13:03:13;1.63;;;1.23;;
11488;SDS011;5801;50.804;12.638;2024-02-14T13:05:39;2.08;;;1.27;;
11488;SDS011;5801;50.804;12.638;2024-02-14T13:08:06;1.55;;;1.30;;
11488;SDS011;5801;50.804;12.638;2024-02-14T13:10:32;3.10;;;2.13;;
11488;SDS011;5801;50.804;12.638;2024-02-14T13:12:58;3.00;;;1.50;;
11488;SDS011;5801;50.804;12.638;2024-02-14T13:15:25;1.90;;;1.50;;
11488;SDS011;5801;50.804;12.638;2024-02-14T13:17:50;3.03;;;1.30;;
11488;SDS011;5801;50.804;12.638;2024-02-14T13:20:16;2.17;;;1.63;;
11488;SDS011;5801;50.804;12.638;2024-02-14T13:22:42;6.35;;;1.67;;
11488;SDS011;5801;50.804;12.638;2024-02-14T13:25:08;2.05;;;1.30;;
11488;SDS011;5801;50.804;12.638;2024-02-14T13:27:35;1.50;;;1.30;;
11488;SDS011;5801;50.804;12.638;2024-02-14T13:30:01;2.90;;;1.80;;
11488;SDS011;5801;50.804;12.638;2024-02-14T13:32:27;3.80;;;1.30;;
11488;SDS011;5801;50.804;12.638;2024-02-14T13:34:53;2.88;;;1.48;;
11488;SDS011;5801;50.804;12.638;2024-02-14T13:37:19;2.53;;;1.75;;
11488;SDS011;5801;50.804;12.638;2024-02-14T13:39:45;1.77;;;1.40;;
11488;SDS011;5801;50.804;12.638;2024-02-14T13:42:12;2.22;;;1.77;;
11488;SDS011;5801;50.804;12.638;2024-02-14T13:44:38;2.75;;;1.60;;
11488;SDS011;5801;50.804;12.638;2024-02-14T13:47:05;2.97;;;1.83;;
11488;SDS011;5801;50.804;12.638;2024-02-14T13:49:31;3.97;;;1.60;;
11488;SDS011;5801;50.804;12.638;2024-02-14T13:51:57;3.15;;;1.55;;
11488;SDS011;5801;50.804;12.638;2024-02-14T13:54:23;4.38;;;1.92;;
11488;SDS011;5801;50.804;12.638;2024-02-14T13:56:50;4.15;;;1.70;;
11488;SDS011;5801;50.804;12.638;2024-02-14T13:59:16;3.17;;;2.05;;
11488;SDS011;5801;50.804;12.638;2024-02-14T14:01:43;5.88;;;1.88;;
11488;SDS011;5801;50.804;12.638;2024-02-14T14:04:10;3.45;;;1.45;;
11488;SDS011;5801;50.804;12.638;2024-02-14T14:06:37;10.68;;;1.70;;
11488;SDS011;5801;50.804;12.638;2024-02-14T14:09:04;1.25;;;1.15;;
11488;SDS011;5801;50.804;12.638;2024-02-14T14:11:35;2.83;;;1.73;;
11488;SDS011;5801;50.804;12.638;2024-02-14T14:14:01;2.88;;;1.45;;
11488;SDS011;5801;50.804;12.638;2024-02-14T14:16:27;2.30;;;1.92;;
11488;SDS011;5801;50.804;12.638;2024-02-14T14:18:52;5.22;;;2.08;;
11488;SDS011;5801;50.804;12.638;2024-02-14T14:21:18;3.10;;;1.83;;
11488;SDS011;5801;50.804;12.638;2024-02-14T14:23:44;2.03;;;1.70;;
11488;SDS011;5801;50.804;12.638;2024-02-14T14:26:12;1.80;;;1.60;;
11488;SDS011;5801;50.804;12.638;2024-02-14T14:28:38;3.63;;;1.92;;
11488;SDS011;5801;50.804;12.638;2024-02-14T14:31:05;3.15;;;2.45;;
11488;SDS011;5801;50.804;12.638;2024-02-14T14:33:31;2.15;;;1.55;;
11488;SDS011;5801;50.804;12.638;2024-02-14T14:35:57;1.98;;;1.63;;
11488;SDS011;5801;50.804;12.638;2024-02-14T14:38:23;2.50;;;1.85;;
11488;SDS011;5801;50.804;12.638;2024-02-14T14:40:51;2.45;;;1.63;;
11488;SDS011;5801;50.804;12.638;2024-02-14T14:43:20;4.22;;;1.65;;
11488;SDS011;5801;50.804;12.638;2024-02-14T14:45:46;2.33;;;1.73;;